createdAt,value
2023-04-13T00:03:48.964Z,51.99
2023-04-13T00:08:51.291Z,51.69
2023-04-13T00:13:55.611Z,51.64
2023-04-13T00:19:02.034Z,51.65
2023-04-13T00:24:11.598Z,51.49
2023-04-13T00:29:14.642Z,51.68
2023-04-13T00:34:16.557Z,51.55
2023-04-13T00:39:26.945Z,51.36
2023-04-13T00:44:33.472Z,51.50
2023-04-13T00:49:36.706Z,51.48
2023-04-13T00:54:39.020Z,51.45
2023-04-13T00:59:43.815Z,51.31
2023-04-13T01:04:50.370Z,51.04
2023-04-13T01:10:33.044Z,51.16
2023-04-13T01:15:41.403Z,51.27
2023-04-13T01:20:44.977Z,51.23
2023-04-13T01:26:03.436Z,51.25
2023-04-13T01:31:05.777Z,51.22
2023-04-13T01:36:12.406Z,51.38
2023-04-13T01:41:14.044Z,51.26
2023-04-13T01:46:15.963Z,51.07
2023-04-13T01:51:19.529Z,51.30
2023-04-13T01:56:22.030Z,51.36
2023-04-13T02:01:41.327Z,51.06
2023-04-13T02:06:43.402Z,51.01
2023-04-13T02:11:48.235Z,51.24
2023-04-13T02:16:50.406Z,51.25
2023-04-13T02:22:13.423Z,51.16
2023-04-13T02:27:15.004Z,51.20
2023-04-13T02:32:16.692Z,51.05
2023-04-13T02:37:21.194Z,51.03
2023-04-13T02:42:33.853Z,51.05
2023-04-13T02:48:10.144Z,51.01
2023-04-13T02:53:18.127Z,50.92
2023-04-13T02:58:25.080Z,50.96
2023-04-13T03:03:38.827Z,51.19
2023-04-13T03:08:41.231Z,51.11
2023-04-13T03:13:48.240Z,51.10
2023-04-13T03:18:50.101Z,50.93
2023-04-13T03:23:55.094Z,50.84
2023-04-13T03:29:05.528Z,50.96
2023-04-13T03:34:07.342Z,50.64
2023-04-13T03:39:09.245Z,50.68
2023-04-13T03:44:12.049Z,50.52
2023-04-13T03:49:19.762Z,50.61
2023-04-13T03:54:21.548Z,50.55
2023-04-13T03:59:33.887Z,50.47
2023-04-13T04:04:40.140Z,50.57
2023-04-13T04:09:46.550Z,50.67
2023-04-13T04:14:56.838Z,50.68
2023-04-13T04:20:02.826Z,50.72
2023-04-13T04:25:14.139Z,50.63
2023-04-13T04:30:17.417Z,50.80
2023-04-13T04:35:19.841Z,50.78
2023-04-13T04:40:24.343Z,51.04
2023-04-13T04:45:26.392Z,50.88
2023-04-13T05:02:24.806Z,50.61
2023-04-13T05:07:29.694Z,50.91
2023-04-13T05:12:31.449Z,50.87
2023-04-13T05:17:34.301Z,50.86
2023-04-13T05:22:36.137Z,50.90
2023-04-13T05:27:40.859Z,50.93
2023-04-13T05:32:42.519Z,50.88
2023-04-13T05:37:46.888Z,51.08
2023-04-13T05:42:50.122Z,50.84
2023-04-13T05:47:51.935Z,50.85
2023-04-13T05:52:53.780Z,50.96
2023-04-13T05:57:55.527Z,50.84
2023-04-13T06:02:58.238Z,50.96
2023-04-13T06:08:04.674Z,50.71
2023-04-13T06:13:06.526Z,50.82
2023-04-13T06:18:14.006Z,50.89
2023-04-13T06:23:19.681Z,50.92
2023-04-13T06:28:24.284Z,50.87
2023-04-13T06:33:27.136Z,50.94
2023-04-13T06:38:29.819Z,50.88
2023-04-13T06:43:34.241Z,50.92
2023-04-13T06:48:40.765Z,50.87
2023-04-13T06:53:49.071Z,50.97
2023-04-13T06:58:55.460Z,50.96
2023-04-13T09:22:23.850Z,51.26
2023-04-13T09:27:50.077Z,51.28
2023-04-13T09:44:44.677Z,51.61
2023-04-13T09:49:55.979Z,51.56
2023-04-13T10:01:12.581Z,51.65
2023-04-13T10:06:46.752Z,51.92
2023-04-13T10:12:13.048Z,51.94
2023-04-13T10:18:05.506Z,52.28
2023-04-13T10:23:26.514Z,52.21
2023-04-13T10:40:58.727Z,52.35
2023-04-13T10:46:41.307Z,52.04
2023-04-13T11:09:42.692Z,51.19
2023-04-13T11:34:45.342Z,53.22
2023-04-13T11:39:57.509Z,53.06
2023-04-13T11:45:12.332Z,53.17
2023-04-13T11:50:23.225Z,53.16
2023-04-13T11:55:42.468Z,53.16
2023-04-13T12:18:14.361Z,53.83
2023-04-13T12:23:24.412Z,54.02
2023-04-13T12:28:32.216Z,53.92
2023-04-13T12:33:37.482Z,53.88
2023-04-13T12:38:43.090Z,53.84
2023-04-13T12:43:44.989Z,53.82
2023-04-13T12:48:48.151Z,53.87
2023-04-13T12:53:49.821Z,53.98
2023-04-13T12:58:54.529Z,53.93
2023-04-13T13:03:56.187Z,53.94
2023-04-13T13:08:58.272Z,54.08
2023-04-13T13:14:00.163Z,54.41
2023-04-13T13:19:06.288Z,54.28
2023-04-13T13:24:08.403Z,54.33
2023-04-13T13:29:11.685Z,54.28
2023-04-13T13:34:16.379Z,54.49
2023-04-13T13:39:18.635Z,54.49
2023-04-13T13:44:21.688Z,54.60
2023-04-13T13:49:26.188Z,54.63
2023-04-13T13:54:29.991Z,54.81
2023-04-13T13:59:32.972Z,54.71
2023-04-13T14:04:34.981Z,54.69
2023-04-13T14:09:36.751Z,54.75
2023-04-13T14:14:38.395Z,54.69
2023-04-13T14:19:47.912Z,54.97
2023-04-13T14:24:53.233Z,54.65
2023-04-13T14:29:57.192Z,54.48
2023-04-13T14:35:15.272Z,54.45
2023-04-13T14:40:17.237Z,54.20
2023-04-13T14:45:24.896Z,54.20
2023-04-13T14:55:55.255Z,54.06
2023-04-13T15:00:57.075Z,54.02
2023-04-13T15:06:05.522Z,53.76
2023-04-13T15:11:16.032Z,53.74
2023-04-13T15:16:20.483Z,53.81
2023-04-13T15:21:22.201Z,53.73
2023-04-13T15:26:25.429Z,53.72
2023-04-13T15:31:29.406Z,53.54
2023-04-13T15:36:31.274Z,53.63
2023-04-13T15:41:33.380Z,53.42
2023-04-13T15:46:35.915Z,53.36
2023-04-13T15:51:40.006Z,53.51
2023-04-13T15:56:46.855Z,53.34
2023-04-13T16:01:59.233Z,53.33
2023-04-13T16:07:12.914Z,53.25
2023-04-13T16:12:29.856Z,53.31
2023-04-13T16:17:33.033Z,53.31
2023-04-13T16:22:36.360Z,53.13
2023-04-13T16:27:45.418Z,52.96
2023-04-13T16:32:51.340Z,53.05
2023-04-13T16:37:53.214Z,53.21
2023-04-13T16:42:55.436Z,53.08
2023-04-13T16:48:01.442Z,52.97
2023-04-13T16:53:05.971Z,53.11
2023-04-13T16:58:15.764Z,53.13
2023-04-13T17:03:21.881Z,53.23
2023-04-13T17:08:23.974Z,53.20
2023-04-13T17:13:28.731Z,53.19
2023-04-13T17:18:30.556Z,53.39
2023-04-13T17:23:34.931Z,53.48
2023-04-13T17:28:36.767Z,53.36
2023-04-13T17:33:38.475Z,53.32
2023-04-13T17:38:40.508Z,53.38
2023-04-13T17:43:42.297Z,53.57
2023-04-13T17:54:30.806Z,53.26
2023-04-13T17:59:33.005Z,53.36
2023-04-13T18:04:40.828Z,53.53
2023-04-13T18:09:46.037Z,53.21
2023-04-13T18:14:50.538Z,53.16
2023-04-13T18:19:52.982Z,53.08
2023-04-13T18:24:59.553Z,52.98
2023-04-13T18:30:05.929Z,53.02
2023-04-13T18:35:26.440Z,53.00
2023-04-13T18:40:44.476Z,52.90
2023-04-13T18:46:02.092Z,52.95
2023-04-13T18:51:05.498Z,53.01
2023-04-13T18:56:23.855Z,52.79
2023-04-13T19:02:15.798Z,52.61
2023-04-13T19:07:39.804Z,52.71
2023-04-13T19:13:32.474Z,52.46
2023-04-13T19:19:02.438Z,52.65
2023-04-13T19:42:42.832Z,52.28
2023-04-13T19:48:43.780Z,52.23
2023-04-13T19:53:53.950Z,52.23
2023-04-13T19:59:22.394Z,52.34
2023-04-13T20:10:18.569Z,52.18
2023-04-13T20:15:41.432Z,52.03
2023-04-13T20:50:50.912Z,51.51
2023-04-13T20:56:08.705Z,51.49
2023-04-13T21:07:30.192Z,51.23
2023-04-13T21:12:52.588Z,51.16
2023-04-13T21:18:34.952Z,51.12
2023-04-13T21:24:00.355Z,51.18
2023-04-13T21:29:52.181Z,51.06
2023-04-13T21:40:56.026Z,51.05
2023-04-13T21:46:28.886Z,51.10
2023-04-13T21:56:56.490Z,50.86
2023-04-13T22:02:22.248Z,50.65
2023-04-13T22:07:47.143Z,50.65
2023-04-13T22:13:34.759Z,50.50
2023-04-13T22:18:49.515Z,50.41
2023-04-13T22:23:57.546Z,50.41
2023-04-13T22:29:13.653Z,50.35
2023-04-13T22:34:24.593Z,50.35
2023-04-13T22:39:48.175Z,50.26
2023-04-13T22:45:01.678Z,50.19
2023-04-13T22:50:30.970Z,50.22
2023-04-13T22:55:50.155Z,50.06
2023-04-13T23:00:58.618Z,50.08
2023-04-13T23:06:07.028Z,49.90
2023-04-13T23:23:20.322Z,49.61
2023-04-13T23:34:12.145Z,49.64
2023-04-13T23:39:41.923Z,49.51
2023-04-13T23:44:47.969Z,49.57
2023-04-13T23:49:55.679Z,49.47
